Time;durP1;ratioP1;P1;durP2;ratioP2;P2;SDS_P1;SDS_P2;PMS_P1;PMS_P2;Temp;Humidity;BMP_temperature;BMP_pressure;BME280_temperature;BME280_humidity;BME280_pressure;Samples;Min_cycle;Max_cycle;Signal;HPM_P1;HPM_P2
2024/02/02 00:02:37;;;;;;;22.23;4.15;;;5.00;99.90;;;;;;6223212;28;20053;-85
2024/02/02 00:05:39;;;;;;;26.83;4.47;;;4.90;99.90;;;;;;6243951;28;20068;-87
2024/02/02 00:08:41;;;;;;;20.48;4.60;;;4.90;99.90;;;;;;6237670;28;20414;-86
2024/02/02 00:11:42;;;;;;;21.77;4.57;;;4.90;99.90;;;;;;6235600;28;20068;-86
2024/02/02 00:14:44;;;;;;;26.80;3.83;;;5.00;99.90;;;;;;6225403;28;20058;-85
2024/02/02 00:17:46;;;;;;;25.95;4.97;;;5.00;99.90;;;;;;6225647;28;20049;-85
2024/02/02 00:20:48;;;;;;;19.05;4.45;;;5.00;99.90;;;;;;6228632;28;20052;-86
2024/02/02 00:23:50;;;;;;;15.48;3.83;;;5.00;99.90;;;;;;6226812;28;20101;-84
2024/02/02 00:26:52;;;;;;;19.52;4.53;;;4.90;99.90;;;;;;6226208;28;20057;-85
2024/02/02 00:29:54;;;;;;;17.05;4.53;;;5.00;99.90;;;;;;6224024;28;20046;-84
2024/02/02 00:32:55;;;;;;;21.45;4.10;;;5.00;99.90;;;;;;6234230;28;20574;-84
2024/02/02 00:35:57;;;;;;;19.60;3.80;;;5.00;99.90;;;;;;6233418;28;20045;-85
2024/02/02 00:38:59;;;;;;;22.83;3.60;;;5.00;99.90;;;;;;6225589;28;20084;-84
2024/02/02 00:42:01;;;;;;;21.92;3.63;;;5.10;99.90;;;;;;6227611;28;20179;-83
2024/02/02 00:45:03;;;;;;;28.65;4.00;;;5.10;99.90;;;;;;6220842;28;20060;-85
2024/02/02 00:48:04;;;;;;;20.23;3.97;;;5.20;99.90;;;;;;6232145;28;20128;-84
2024/02/02 00:51:08;;;;;;;25.42;4.00;;;5.40;99.90;;;;;;6231837;28;20060;-84
2024/02/02 00:54:10;;;;;;;26.27;4.10;;;5.40;99.90;;;;;;6235172;28;20053;-84
2024/02/02 00:57:12;;;;;;;27.15;4.75;;;5.40;99.90;;;;;;6233173;28;20046;-85
2024/02/02 01:00:14;;;;;;;31.05;3.80;;;5.30;99.90;;;;;;6224990;28;20061;-84
2024/02/02 01:03:16;;;;;;;25.70;4.03;;;5.30;99.90;;;;;;6226547;28;20061;-84
2024/02/02 01:06:17;;;;;;;20.30;4.07;;;5.20;99.90;;;;;;6230469;28;20506;-86
2024/02/02 01:09:20;;;;;;;17.08;3.92;;;5.30;99.90;;;;;;6226572;28;20571;-85
2024/02/02 01:12:22;;;;;;;20.40;3.75;;;5.20;99.90;;;;;;6228051;28;20046;-85
2024/02/02 01:15:23;;;;;;;23.95;4.72;;;5.30;99.90;;;;;;6229360;28;20057;-85
2024/02/02 01:18:25;;;;;;;24.65;3.72;;;5.30;99.90;;;;;;6233264;28;20050;-83
2024/02/02 01:21:27;;;;;;;18.85;3.70;;;5.20;99.90;;;;;;6225357;28;20184;-85
2024/02/02 01:24:28;;;;;;;23.45;4.65;;;5.30;99.90;;;;;;6235014;28;20501;-87
2024/02/02 01:27:31;;;;;;;20.77;4.63;;;5.30;99.90;;;;;;6232203;28;20065;-85
2024/02/02 01:30:33;;;;;;;31.25;4.40;;;5.30;99.90;;;;;;6232150;28;20136;-84
2024/02/02 01:33:34;;;;;;;21.02;3.70;;;5.40;99.90;;;;;;6234336;28;20527;-87
2024/02/02 01:36:36;;;;;;;26.35;3.80;;;5.40;99.90;;;;;;6230860;28;20045;-85
2024/02/02 01:39:38;;;;;;;15.43;3.72;;;5.50;99.90;;;;;;6238908;28;20529;-87
2024/02/02 01:42:42;;;;;;;26.65;4.30;;;5.40;99.90;;;;;;6235532;28;20045;-86
2024/02/02 01:45:44;;;;;;;19.83;4.00;;;5.40;99.90;;;;;;6235841;28;20064;-87
2024/02/02 01:48:46;;;;;;;21.58;4.03;;;5.50;99.90;;;;;;6247875;28;20057;-84
2024/02/02 01:51:48;;;;;;;21.58;4.50;;;5.40;99.90;;;;;;6247277;28;20065;-84
2024/02/02 01:54:49;;;;;;;21.52;3.40;;;5.40;99.90;;;;;;6252043;28;20045;-86
2024/02/02 01:57:51;;;;;;;18.50;3.83;;;5.40;99.90;;;;;;6235266;28;20049;-84
2024/02/02 02:00:53;;;;;;;27.52;4.68;;;5.40;99.90;;;;;;6241104;28;20065;-84
2024/02/02 02:03:54;;;;;;;28.52;4.15;;;5.40;99.90;;;;;;6243296;28;20095;-85
2024/02/02 02:06:56;;;;;;;19.55;3.65;;;5.40;99.90;;;;;;6250035;28;20045;-84
2024/02/02 02:09:58;;;;;;;18.88;3.70;;;5.40;99.90;;;;;;6245398;28;20085;-84
2024/02/02 02:13:00;;;;;;;25.45;4.35;;;5.40;99.90;;;;;;6240645;28;20053;-86
2024/02/02 02:16:01;;;;;;;18.67;3.90;;;5.40;99.90;;;;;;6247387;28;20486;-84
2024/02/02 02:19:03;;;;;;;26.33;3.90;;;5.40;99.90;;;;;;6236212;28;20084;-86
2024/02/02 02:22:05;;;;;;;20.25;3.45;;;5.40;99.90;;;;;;6238344;28;20054;-83
2024/02/02 02:25:07;;;;;;;24.25;3.90;;;5.30;99.90;;;;;;6245971;28;20425;-85
2024/02/02 02:28:08;;;;;;;22.58;3.60;;;5.30;99.90;;;;;;6238001;28;20060;-85
2024/02/02 02:31:10;;;;;;;18.42;3.80;;;5.40;99.90;;;;;;6219429;28;20382;-84
2024/02/02 02:34:12;;;;;;;19.40;4.10;;;5.40;99.90;;;;;;6227375;28;20068;-84
2024/02/02 02:37:13;;;;;;;24.63;4.55;;;5.50;99.90;;;;;;6226557;28;20473;-84
2024/02/02 02:40:15;;;;;;;24.88;4.50;;;5.60;99.90;;;;;;6229656;28;20072;-84
2024/02/02 02:43:17;;;;;;;19.52;4.25;;;5.70;99.90;;;;;;6232756;28;20050;-84
2024/02/02 02:46:19;;;;;;;16.95;3.67;;;5.80;99.90;;;;;;6236544;28;20054;-84
2024/02/02 02:49:21;;;;;;;19.15;3.72;;;5.90;99.90;;;;;;6236415;28;20042;-85
2024/02/02 02:52:23;;;;;;;13.88;3.28;;;6.00;99.90;;;;;;6229659;28;20061;-83
2024/02/02 02:55:25;;;;;;;24.20;3.92;;;6.00;99.90;;;;;;6234019;28;20050;-84
2024/02/02 02:58:26;;;;;;;17.00;3.75;;;6.10;99.90;;;;;;6230297;28;20053;-83
2024/02/02 03:01:28;;;;;;;15.70;3.20;;;6.10;99.90;;;;;;6234032;28;20053;-84
2024/02/02 03:04:30;;;;;;;15.15;3.00;;;6.10;99.90;;;;;;6223874;28;20090;-84
2024/02/02 03:07:32;;;;;;;18.50;4.03;;;6.20;99.90;;;;;;6232081;28;20053;-84
2024/02/02 03:10:33;;;;;;;17.00;3.20;;;6.20;99.90;;;;;;6240657;28;20045;-84
2024/02/02 03:13:35;;;;;;;14.82;3.03;;;6.20;99.90;;;;;;6224183;28;20132;-85
2024/02/02 03:16:37;;;;;;;14.20;3.35;;;6.30;99.90;;;;;;6231357;28;20054;-85
2024/02/02 03:19:39;;;;;;;12.77;3.00;;;6.30;99.90;;;;;;6224730;28;20053;-84
2024/02/02 03:22:40;;;;;;;16.35;3.30;;;6.40;99.90;;;;;;6230927;28;20050;-83
2024/02/02 03:25:42;;;;;;;13.93;3.08;;;6.40;99.90;;;;;;6232950;28;20050;-84
2024/02/02 03:28:44;;;;;;;14.05;3.03;;;6.40;99.90;;;;;;6237237;28;20076;-86
2024/02/02 03:31:45;;;;;;;16.23;3.20;;;6.40;99.90;;;;;;6235176;28;20520;-85
2024/02/02 03:34:47;;;;;;;17.15;3.15;;;6.50;99.90;;;;;;6227447;28;20081;-84
2024/02/02 03:37:49;;;;;;;13.07;2.75;;;6.50;99.90;;;;;;6223628;28;20498;-85
2024/02/02 03:40:50;;;;;;;18.90;3.60;;;6.50;99.90;;;;;;6230864;28;20374;-88
2024/02/02 03:43:54;;;;;;;17.80;3.28;;;6.60;99.90;;;;;;6225270;28;20139;-87
2024/02/02 03:46:56;;;;;;;14.75;3.20;;;6.60;99.90;;;;;;6235492;28;20048;-86
2024/02/02 03:49:58;;;;;;;16.38;3.20;;;6.60;99.90;;;;;;6243626;28;20056;-87
2024/02/02 03:53:00;;;;;;;13.40;2.60;;;6.60;99.90;;;;;;6242824;28;20041;-86
2024/02/02 03:56:02;;;;;;;15.27;3.22;;;6.70;99.90;;;;;;6229182;28;20350;-85
2024/02/02 03:59:04;;;;;;;14.52;2.88;;;6.60;99.90;;;;;;6231493;28;20425;-86
2024/02/02 04:02:06;;;;;;;14.38;3.08;;;6.70;99.90;;;;;;6227556;28;20176;-87
2024/02/02 04:05:07;;;;;;;11.68;3.03;;;6.70;99.90;;;;;;6225161;28;20057;-86
2024/02/02 04:08:09;;;;;;;14.75;2.90;;;6.70;99.90;;;;;;6224111;28;20366;-84
2024/02/02 04:11:11;;;;;;;16.92;3.05;;;6.80;99.90;;;;;;6239151;28;20406;-85
2024/02/02 04:14:13;;;;;;;12.13;2.55;;;6.80;99.90;;;;;;6225698;28;20045;-86
2024/02/02 04:17:14;;;;;;;14.00;2.35;;;6.80;99.90;;;;;;6227514;28;20065;-87
2024/02/02 04:20:16;;;;;;;8.27;2.25;;;6.90;99.90;;;;;;6223576;28;20054;-87
2024/02/02 04:23:17;;;;;;;11.00;2.78;;;6.90;99.90;;;;;;6227774;28;20041;-87
2024/02/02 04:26:19;;;;;;;11.38;2.80;;;6.90;99.90;;;;;;6236363;28;20057;-86
2024/02/02 04:29:21;;;;;;;10.02;2.20;;;7.00;99.90;;;;;;6237024;28;20057;-84
2024/02/02 04:32:22;;;;;;;13.68;2.65;;;7.00;99.90;;;;;;6229777;28;20046;-86
2024/02/02 04:35:24;;;;;;;12.05;2.50;;;7.00;99.90;;;;;;6224200;28;20058;-87
2024/02/02 04:38:26;;;;;;;10.80;2.30;;;7.00;99.90;;;;;;6238310;28;20119;-86
2024/02/02 04:41:27;;;;;;;11.57;2.35;;;7.10;99.90;;;;;;6226942;28;20054;-86
2024/02/02 04:44:29;;;;;;;5.70;1.98;;;7.10;99.90;;;;;;6217768;28;20505;-84
2024/02/02 04:47:31;;;;;;;10.20;2.42;;;7.10;99.90;;;;;;6240842;28;20061;-88
2024/02/02 04:50:32;;;;;;;11.05;1.85;;;7.20;99.90;;;;;;6233062;28;20045;-85
2024/02/02 04:53:34;;;;;;;7.57;1.95;;;7.20;99.90;;;;;;6219633;28;20062;-86
2024/02/02 04:56:36;;;;;;;6.68;1.50;;;7.20;99.90;;;;;;6231338;28;20057;-84
2024/02/02 04:59:37;;;;;;;6.97;1.75;;;7.30;99.90;;;;;;6228409;28;20053;-85
2024/02/02 05:02:39;;;;;;;11.15;1.83;;;7.30;99.90;;;;;;6229535;28;20061;-85
2024/02/02 05:05:41;;;;;;;9.68;1.95;;;7.30;99.90;;;;;;6229085;28;20532;-84
2024/02/02 05:08:43;;;;;;;6.55;1.70;;;7.30;99.90;;;;;;6229730;28;20054;-86
2024/02/02 05:11:45;;;;;;;11.65;2.38;;;7.40;99.90;;;;;;6235820;28;20060;-87
2024/02/02 05:14:47;;;;;;;7.22;1.85;;;7.40;99.90;;;;;;6234671;28;20061;-86
2024/02/02 05:17:48;;;;;;;7.68;1.73;;;7.40;99.90;;;;;;6231822;28;20147;-86
2024/02/02 05:20:50;;;;;;;5.97;1.52;;;7.40;99.90;;;;;;6230851;28;20054;-85
2024/02/02 05:23:52;;;;;;;9.20;1.83;;;7.40;99.90;;;;;;6235338;28;20057;-86
2024/02/02 05:26:56;;;;;;;7.10;1.48;;;7.50;99.90;;;;;;6238888;28;20050;-88
2024/02/02 05:29:58;;;;;;;5.22;1.48;;;7.50;99.90;;;;;;6224262;28;20038;-84
2024/02/02 05:33:00;;;;;;;5.68;1.85;;;7.50;99.90;;;;;;6230762;28;20091;-86
2024/02/02 05:36:01;;;;;;;5.22;1.80;;;7.60;99.90;;;;;;6229021;28;20052;-86
2024/02/02 05:39:03;;;;;;;5.90;1.88;;;7.60;99.90;;;;;;6241509;28;20049;-87
2024/02/02 05:42:05;;;;;;;7.40;1.92;;;7.60;99.90;;;;;;6235016;28;20052;-86
2024/02/02 05:45:07;;;;;;;6.30;2.03;;;7.60;99.90;;;;;;6223940;28;20073;-86
2024/02/02 05:48:08;;;;;;;6.22;2.08;;;7.70;99.90;;;;;;6242523;28;20160;-85
2024/02/02 05:51:10;;;;;;;6.07;1.77;;;7.70;99.90;;;;;;6231644;28;20790;-86
2024/02/02 05:54:12;;;;;;;5.38;1.83;;;7.70;99.90;;;;;;6235603;28;20054;-88
2024/02/02 05:57:14;;;;;;;5.38;1.90;;;7.80;99.90;;;;;;6241926;28;20144;-84
2024/02/02 06:00:18;;;;;;;5.55;1.73;;;7.80;99.90;;;;;;6226606;28;20045;-88
2024/02/02 06:03:20;;;;;;;7.07;2.47;;;7.80;99.90;;;;;;6230603;28;20164;-88
2024/02/02 06:06:22;;;;;;;6.07;1.90;;;7.80;99.90;;;;;;6228291;28;20068;-88
2024/02/02 06:09:24;;;;;;;6.05;2.17;;;7.80;99.90;;;;;;6240786;28;20057;-88
2024/02/02 06:12:26;;;;;;;11.25;2.50;;;7.90;99.90;;;;;;6243703;28;20121;-89
2024/02/02 06:15:27;;;;;;;6.43;2.03;;;7.90;99.90;;;;;;6230042;28;20072;-90
2024/02/02 06:18:29;;;;;;;5.40;2.10;;;7.90;99.90;;;;;;6241775;28;20440;-88
2024/02/02 06:21:31;;;;;;;4.60;1.90;;;8.00;99.90;;;;;;6229412;28;20413;-89
2024/02/02 06:24:33;;;;;;;6.13;2.13;;;8.00;99.90;;;;;;6234242;28;20046;-89
2024/02/02 06:27:35;;;;;;;5.93;1.85;;;8.10;99.90;;;;;;6232244;28;20054;-86
2024/02/02 06:30:36;;;;;;;5.32;1.95;;;8.10;99.90;;;;;;6229032;28;20052;-87
2024/02/02 06:33:38;;;;;;;4.53;1.85;;;8.20;99.90;;;;;;6230948;28;20057;-89
2024/02/02 06:36:40;;;;;;;5.50;1.90;;;8.20;99.90;;;;;;6225551;28;20050;-84
2024/02/02 06:39:42;;;;;;;3.75;1.88;;;8.20;99.90;;;;;;6230778;28;20054;-89
2024/02/02 06:42:44;;;;;;;5.60;2.15;;;8.20;99.90;;;;;;6225334;28;20060;-89
2024/02/02 06:45:46;;;;;;;7.70;2.03;;;8.20;99.90;;;;;;6235048;28;20053;-84
2024/02/02 06:48:50;;;;;;;5.82;2.22;;;8.30;99.90;;;;;;6233471;28;20045;-87
2024/02/02 06:51:51;;;;;;;4.60;2.20;;;8.30;99.90;;;;;;6234988;28;20049;-88
2024/02/02 06:54:53;;;;;;;4.32;1.98;;;8.30;99.90;;;;;;6230745;28;20042;-90
2024/02/02 06:57:55;;;;;;;4.60;2.40;;;8.30;99.90;;;;;;6234936;28;20049;-86
2024/02/02 07:00:57;;;;;;;5.65;2.20;;;8.30;99.90;;;;;;6234141;28;20049;-86
2024/02/02 07:03:58;;;;;;;4.40;2.17;;;8.40;99.90;;;;;;6234004;28;20616;-85
2024/02/02 07:07:00;;;;;;;5.18;2.40;;;8.40;99.90;;;;;;6237235;28;20129;-87
2024/02/02 07:10:04;;;;;;;6.15;2.63;;;8.40;99.90;;;;;;6234786;28;20128;-86
2024/02/02 07:13:05;;;;;;;6.28;2.47;;;8.40;99.90;;;;;;6224541;28;20390;-86
2024/02/02 07:16:07;;;;;;;5.95;2.80;;;8.40;99.90;;;;;;6236649;28;20053;-88
2024/02/02 07:19:09;;;;;;;7.32;2.65;;;8.50;99.90;;;;;;6237992;28;20087;-89
2024/02/02 07:22:11;;;;;;;5.75;2.38;;;8.50;99.90;;;;;;6234518;28;20508;-90
2024/02/02 07:25:12;;;;;;;6.28;2.80;;;8.50;99.90;;;;;;6239190;28;20048;-90
2024/02/02 07:28:14;;;;;;;5.43;2.53;;;8.50;99.90;;;;;;6231858;28;20045;-88
2024/02/02 07:31:16;;;;;;;5.55;2.70;;;8.60;99.90;;;;;;6236253;28;20058;-86
2024/02/02 07:34:17;;;;;;;6.78;3.42;;;8.50;99.90;;;;;;6231413;28;20168;-84
2024/02/02 07:37:19;;;;;;;9.30;3.50;;;8.60;99.90;;;;;;6233056;28;20049;-84
2024/02/02 07:40:21;;;;;;;9.23;3.63;;;8.60;99.90;;;;;;6233135;28;20046;-85
2024/02/02 07:43:22;;;;;;;5.93;3.53;;;8.60;99.90;;;;;;6229465;28;20068;-84
2024/02/02 07:46:24;;;;;;;7.25;3.10;;;8.60;99.90;;;;;;6233608;28;20072;-84
2024/02/02 07:49:26;;;;;;;7.75;3.47;;;8.70;99.90;;;;;;6242641;28;20075;-89
2024/02/02 07:52:28;;;;;;;6.90;3.40;;;8.70;99.90;;;;;;6232337;28;20049;-88
2024/02/02 07:55:30;;;;;;;6.72;3.30;;;8.70;99.90;;;;;;6232950;28;20057;-88
2024/02/02 07:58:31;;;;;;;7.10;3.25;;;8.70;99.90;;;;;;6229003;28;20061;-86
2024/02/02 08:01:33;;;;;;;13.13;3.60;;;8.70;99.90;;;;;;6235259;28;20052;-86
2024/02/02 08:04:35;;;;;;;6.05;3.13;;;8.80;99.90;;;;;;6229722;28;20049;-88
2024/02/02 08:07:37;;;;;;;10.30;2.95;;;8.80;99.90;;;;;;6238437;28;20063;-86
2024/02/02 08:10:41;;;;;;;8.00;2.70;;;8.80;99.90;;;;;;6236272;28;20053;-89
2024/02/02 08:13:43;;;;;;;8.70;3.22;;;8.90;99.90;;;;;;6230266;28;20057;-87
2024/02/02 08:16:45;;;;;;;5.38;2.92;;;8.80;99.90;;;;;;6233675;28;20512;-86
2024/02/02 08:19:47;;;;;;;5.72;3.10;;;8.80;99.90;;;;;;6235029;28;20061;-87
2024/02/02 08:22:49;;;;;;;5.57;2.70;;;8.90;99.90;;;;;;6244762;28;20045;-85
2024/02/02 08:25:50;;;;;;;5.50;2.88;;;9.00;99.90;;;;;;6223734;28;20049;-86
2024/02/02 08:28:52;;;;;;;5.45;2.83;;;9.00;99.90;;;;;;6227498;28;20064;-86
2024/02/02 08:31:56;;;;;;;4.85;2.65;;;9.00;99.90;;;;;;6230220;28;20112;-87
2024/02/02 08:34:57;;;;;;;14.57;2.90;;;9.10;99.90;;;;;;6221401;28;20065;-86
2024/02/02 08:37:59;;;;;;;10.73;3.13;;;9.20;99.90;;;;;;6229475;28;20041;-86
2024/02/02 08:41:03;;;;;;;7.15;2.67;;;9.20;99.90;;;;;;6224593;28;20172;-83
2024/02/02 08:44:04;;;;;;;6.00;2.67;;;9.30;99.90;;;;;;6220133;28;20075;-84
2024/02/02 08:47:06;;;;;;;10.88;3.03;;;9.40;99.90;;;;;;6233938;28;20053;-86
2024/02/02 08:50:08;;;;;;;5.88;2.60;;;9.50;99.90;;;;;;6237952;28;20060;-88
2024/02/02 08:53:12;;;;;;;6.30;2.88;;;9.60;99.90;;;;;;6246108;28;20068;-88
2024/02/02 08:56:14;;;;;;;5.53;3.10;;;9.60;99.90;;;;;;6230332;28;20646;-90
2024/02/02 08:59:16;;;;;;;6.35;3.25;;;9.60;99.90;;;;;;6229127;28;20049;-92
2024/02/02 09:02:17;;;;;;;5.50;3.00;;;9.50;99.90;;;;;;6237097;28;20049;-84
2024/02/02 09:05:19;;;;;;;5.05;3.30;;;9.50;99.90;;;;;;6219078;28;20405;-83
2024/02/02 09:08:21;;;;;;;7.00;3.20;;;9.60;99.90;;;;;;6236793;28;20050;-88
2024/02/02 09:11:23;;;;;;;6.03;3.00;;;9.60;99.90;;;;;;6237526;28;20132;-87
2024/02/02 09:14:25;;;;;;;6.60;3.03;;;9.50;99.90;;;;;;6234384;28;20054;-85
2024/02/02 09:17:28;;;;;;;5.93;2.88;;;9.50;99.90;;;;;;6233657;28;20046;-90
2024/02/02 09:20:30;;;;;;;6.03;3.30;;;9.60;99.90;;;;;;6240353;28;20203;-85
2024/02/02 09:23:35;;;;;;;5.50;3.03;;;9.60;99.90;;;;;;6227854;28;20050;-81
2024/02/02 09:26:40;;;;;;;6.00;3.20;;;9.60;99.90;;;;;;6237330;28;20061;-84
2024/02/02 09:29:41;;;;;;;5.60;2.97;;;9.70;99.90;;;;;;6225086;28;20498;-82
2024/02/02 09:32:43;;;;;;;7.47;3.13;;;9.70;99.90;;;;;;6237729;28;20140;-84
2024/02/02 09:35:45;;;;;;;5.65;2.83;;;9.70;99.90;;;;;;6246962;28;20050;-86
2024/02/02 09:38:47;;;;;;;6.00;2.83;;;9.70;99.90;;;;;;6241398;28;20144;-85
2024/02/02 09:41:49;;;;;;;6.55;2.97;;;9.70;99.90;;;;;;6227683;28;20524;-87
2024/02/02 09:44:51;;;;;;;5.80;2.85;;;9.80;99.90;;;;;;6230855;28;20053;-83
2024/02/02 09:47:53;;;;;;;5.50;2.95;;;9.80;99.90;;;;;;6238800;28;20049;-83
2024/02/02 09:50:55;;;;;;;6.72;2.75;;;9.80;99.90;;;;;;6238492;28;20056;-83
2024/02/02 09:53:56;;;;;;;6.30;2.80;;;9.80;99.90;;;;;;6233614;28;20147;-86
2024/02/02 09:56:59;;;;;;;4.97;2.67;;;9.90;99.90;;;;;;6241595;28;20053;-87
2024/02/02 10:00:01;;;;;;;5.43;2.67;;;9.90;99.90;;;;;;6239175;28;20095;-91
2024/02/02 10:03:03;;;;;;;4.82;2.53;;;10.00;99.90;;;;;;6235520;28;20137;-89
2024/02/02 10:06:06;;;;;;;4.88;2.65;;;10.10;99.90;;;;;;6234637;28;20064;-90
2024/02/02 10:09:09;;;;;;;4.95;2.55;;;10.10;99.90;;;;;;6232592;28;20062;-90
2024/02/02 10:12:11;;;;;;;4.22;2.22;;;10.20;99.90;;;;;;6233600;28;20054;-92
2024/02/02 10:15:14;;;;;;;4.75;2.35;;;10.20;99.90;;;;;;6231635;28;20081;-87
2024/02/02 10:18:16;;;;;;;4.38;2.35;;;10.30;99.90;;;;;;6232908;28;20607;-87
2024/02/02 10:21:17;;;;;;;4.30;2.15;;;10.30;99.90;;;;;;6233381;28;20057;-89
2024/02/02 10:24:19;;;;;;;5.68;2.17;;;10.40;99.90;;;;;;6231777;28;20508;-91
2024/02/02 10:27:21;;;;;;;4.68;2.22;;;10.50;99.90;;;;;;6224248;28;20058;-89
2024/02/02 10:30:23;;;;;;;3.53;2.00;;;10.60;99.90;;;;;;6222610;28;20132;-89
2024/02/02 10:33:28;;;;;;;5.95;2.10;;;10.70;99.90;;;;;;6202420;28;20066;-93
2024/02/02 10:36:35;;;;;;;4.32;1.83;;;10.90;99.90;;;;;;6215880;28;20065;-91
2024/02/02 10:39:39;;;;;;;6.70;2.20;;;11.20;99.90;;;;;;6224752;28;20066;-90
2024/02/02 10:42:42;;;;;;;3.55;2.05;;;11.20;99.90;;;;;;6221240;28;20054;-88
2024/02/02 10:45:44;;;;;;;5.38;2.00;;;11.30;99.90;;;;;;6206977;28;20058;-90
2024/02/02 10:48:51;;;;;;;5.00;1.83;;;11.40;99.90;;;;;;6199364;28;20069;-87
2024/02/02 10:51:53;;;;;;;4.35;1.98;;;11.50;99.90;;;;;;6223594;28;20108;-89
2024/02/02 10:54:55;;;;;;;5.32;1.70;;;11.70;99.90;;;;;;6225777;28;20064;-90
2024/02/02 10:57:57;;;;;;;3.30;1.60;;;11.80;99.90;;;;;;6222371;28;20057;-90
2024/02/02 11:00:59;;;;;;;3.38;1.33;;;12.00;99.90;;;;;;6221680;28;20194;-89
2024/02/02 11:04:02;;;;;;;4.20;2.33;;;12.10;99.90;;;;;;6225326;28;20076;-95
2024/02/02 11:07:06;;;;;;;3.35;1.42;;;12.20;99.90;;;;;;6227622;28;20472;-88
2024/02/02 11:10:08;;;;;;;3.08;1.60;;;12.20;99.90;;;;;;6232405;28;20065;-95
2024/02/02 11:13:10;;;;;;;4.60;1.52;;;12.30;99.90;;;;;;6231447;28;20172;-93
2024/02/02 11:16:11;;;;;;;2.75;1.25;;;12.60;99.90;;;;;;6238448;28;20053;-90
2024/02/02 11:19:13;;;;;;;3.63;1.55;;;12.50;99.90;;;;;;6240496;28;20102;-94
2024/02/02 11:22:16;;;;;;;2.55;1.20;;;12.80;99.90;;;;;;6243490;28;20053;-94
2024/02/02 11:25:21;;;;;;;2.92;1.30;;;13.20;99.90;;;;;;6215229;28;20054;-91
2024/02/02 11:28:23;;;;;;;2.78;1.15;;;13.30;99.90;;;;;;6238196;28;20050;-92
2024/02/02 11:31:27;;;;;;;2.85;1.10;;;13.20;99.90;;;;;;6242099;28;20497;-93
2024/02/02 11:34:30;;;;;;;3.10;1.38;;;13.40;99.90;;;;;;6220862;28;20118;-94
2024/02/02 11:37:35;;;;;;;3.88;1.40;;;13.40;99.90;;;;;;6225078;28;20038;-93
2024/02/02 11:40:37;;;;;;;3.58;1.30;;;13.90;99.90;;;;;;6249152;28;20049;-93
2024/02/02 11:43:40;;;;;;;3.45;1.10;;;14.40;95.90;;;;;;6248213;28;20053;-93
2024/02/02 11:46:44;;;;;;;3.08;1.40;;;14.20;97.40;;;;;;6252850;28;20065;-93
2024/02/02 11:50:01;;;;;;;2.88;1.00;;;14.00;98.50;;;;;;6242292;28;20048;-94
2024/02/02 11:53:03;;;;;;;3.70;1.13;;;14.00;99.30;;;;;;6226288;28;20050;-92
2024/02/02 11:56:06;;;;;;;3.15;0.90;;;14.10;98.60;;;;;;6226650;28;20053;-95
2024/02/02 11:59:09;;;;;;;3.17;1.10;;;14.00;97.70;;;;;;6246589;28;20042;-93
2024/02/02 12:02:15;;;;;;;4.97;1.10;;;13.90;97.90;;;;;;6227500;28;20043;-93
2024/02/02 12:05:35;;;;;;;5.63;1.05;;;13.80;97.90;;;;;;6245971;28;20046;-92
2024/02/02 12:08:37;;;;;;;2.20;0.90;;;13.70;99.90;;;;;;6207988;28;20054;-95
2024/02/02 12:11:40;;;;;;;1.95;0.90;;;13.60;99.90;;;;;;6234887;28;20389;-95
2024/02/02 12:14:45;;;;;;;2.55;1.08;;;13.50;99.90;;;;;;6210902;28;20137;-94
2024/02/02 12:17:49;;;;;;;3.25;1.02;;;13.40;99.90;;;;;;6235834;28;20168;-93
2024/02/02 12:20:50;;;;;;;2.97;1.08;;;13.50;99.90;;;;;;6229894;28;20060;-95
2024/02/02 12:23:52;;;;;;;3.60;1.05;;;13.50;99.90;;;;;;6225608;28;20060;-89
2024/02/02 12:26:54;;;;;;;2.60;1.10;;;13.40;99.90;;;;;;6240772;28;20076;-94
2024/02/02 12:33:36;;;;;;;4.25;1.02;;;14.20;99.90;;;;;;6213006;28;20065;-94
2024/02/02 12:36:38;;;;;;;4.07;0.90;;;14.80;94.00;;;;;;6231126;28;20081;-92
2024/02/02 12:39:41;;;;;;;3.00;0.95;;;14.90;90.00;;;;;;6232831;28;20081;-93
2024/02/02 12:42:42;;;;;;;4.93;0.90;;;15.30;76.50;;;;;;6234786;28;20060;-94
2024/02/02 12:45:44;;;;;;;3.55;0.90;;;15.80;69.90;;;;;;6244900;28;20062;-94
2024/02/02 12:48:46;;;;;;;2.80;1.15;;;15.80;56.40;;;;;;6234622;28;20058;-94
2024/02/02 12:51:48;;;;;;;1.98;0.82;;;15.60;67.60;;;;;;6231625;28;20117;-91
2024/02/02 12:54:52;;;;;;;2.20;0.80;;;15.50;65.20;;;;;;6232629;28;20066;-94
2024/02/02 12:57:54;;;;;;;4.50;1.10;;;15.30;68.80;;;;;;6225539;28;20037;-93
2024/02/02 13:00:56;;;;;;;2.17;0.90;;;15.40;69.70;;;;;;6225224;28;20079;-93
2024/02/02 13:03:57;;;;;;;4.50;1.02;;;15.40;69.00;;;;;;6229511;28;20061;-92
2024/02/02 13:06:59;;;;;;;3.97;0.90;;;15.50;71.10;;;;;;6227735;28;20057;-91
2024/02/02 13:10:03;;;;;;;2.25;0.98;;;15.80;66.00;;;;;;6225085;28;20057;-94
2024/02/02 13:13:08;;;;;;;4.03;1.27;;;15.90;56.50;;;;;;6229812;28;20077;-93
2024/02/02 13:16:10;;;;;;;2.85;0.90;;;15.70;48.40;;;;;;6227386;28;20066;-96
2024/02/02 13:19:12;;;;;;;6.90;1.00;;;15.80;39.80;;;;;;6233940;28;20060;-92
2024/02/02 13:22:14;;;;;;;1.77;0.80;;;15.90;36.40;;;;;;6228544;28;20536;-91
2024/02/02 13:25:19;;;;;;;1.90;0.80;;;16.40;17.30;;;;;;6231369;28;20048;-93
2024/02/02 13:28:21;;;;;;;1.95;0.88;;;16.20;19.10;;;;;;6238355;28;20061;-90
2024/02/02 13:31:25;;;;;;;1.35;0.65;;;16.10;24.10;;;;;;6238318;28;20054;-90
2024/02/02 13:34:27;;;;;;;2.20;0.80;;;15.90;20.10;;;;;;6239803;28;20425;-91
2024/02/02 13:37:29;;;;;;;1.60;0.70;;;15.70;31.60;;;;;;6249398;28;20092;-95
2024/02/02 13:40:31;;;;;;;1.63;0.80;;;15.70;32.20;;;;;;6246862;28;20053;-94
2024/02/02 13:43:35;;;;;;;2.13;0.70;;;15.90;31.20;;;;;;6219575;28;20054;-95
2024/02/02 13:46:37;;;;;;;1.55;0.60;;;16.20;17.40;;;;;;6244378;28;20068;-94
2024/02/02 13:49:44;;;;;;;2.35;0.70;;;15.70;26.20;;;;;;6246786;28;20054;-94
2024/02/02 13:52:49;;;;;;;4.13;0.77;;;15.50;30.80;;;;;;6235756;28;20110;-95
2024/02/02 13:55:53;;;;;;;1.65;0.50;;;15.40;39.20;;;;;;6232697;28;20054;-91
2024/02/02 13:58:55;;;;;;;5.32;1.00;;;15.60;34.60;;;;;;6241681;28;20054;-93
2024/02/02 14:01:57;;;;;;;1.70;0.60;;;15.40;27.30;;;;;;6276364;23;20057;-93
2024/02/02 14:04:59;;;;;;;1.45;0.60;;;15.20;41.80;;;;;;6235941;28;20065;-92
2024/02/02 14:08:00;;;;;;;2.38;0.70;;;15.10;46.80;;;;;;6266483;28;20057;-91
2024/02/02 14:11:03;;;;;;;2.00;0.70;;;15.10;51.40;;;;;;6234892;28;20054;-92
2024/02/02 14:14:05;;;;;;;3.38;0.90;;;15.00;53.60;;;;;;6249123;28;20050;-91
2024/02/02 14:17:08;;;;;;;3.22;0.90;;;15.10;48.20;;;;;;6264509;28;20068;-94
2024/02/02 14:20:10;;;;;;;2.28;0.90;;;15.50;35.10;;;;;;6242378;28;20058;-94
2024/02/02 14:23:12;;;;;;;2.20;0.70;;;16.20;21.70;;;;;;6249730;28;20054;-93
2024/02/02 14:26:14;;;;;;;2.40;0.90;;;16.50;3.40;;;;;;6240556;28;20046;-86
2024/02/02 14:29:17;;;;;;;1.92;0.70;;;16.70;1.50;;;;;;6214365;28;20188;-89
2024/02/02 14:32:19;;;;;;;1.20;0.50;;;16.60;1.00;;;;;;6217574;28;20058;-83
2024/02/02 14:35:22;;;;;;;2.38;0.68;;;16.20;1.00;;;;;;6227090;28;20057;-84
2024/02/02 14:38:25;;;;;;;1.10;0.55;;;16.30;4.40;;;;;;6208315;28;20054;-81
2024/02/02 14:41:27;;;;;;;1.10;0.60;;;16.40;1.00;;;;;;6207960;28;20480;-87
2024/02/02 14:44:29;;;;;;;2.15;0.63;;;16.40;2.30;;;;;;6207489;28;20246;-83
2024/02/02 14:47:31;;;;;;;1.35;0.65;;;16.60;1.00;;;;;;6226781;28;20130;-81
2024/02/02 14:50:35;;;;;;;1.52;0.65;;;16.70;1.00;;;;;;6229843;28;20498;-89
2024/02/02 14:53:38;;;;;;;4.57;0.70;;;16.70;1.00;;;;;;6222497;28;20050;-81
2024/02/02 14:56:40;;;;;;;1.90;0.80;;;16.60;1.00;;;;;;6220809;28;20051;-89
2024/02/02 14:59:42;;;;;;;2.53;0.70;;;15.90;2.90;;;;;;6210656;28;20057;-87
2024/02/02 15:02:43;;;;;;;2.08;0.80;;;15.40;18.10;;;;;;6215536;28;20062;-93
2024/02/02 15:05:45;;;;;;;3.78;1.05;;;15.00;37.60;;;;;;6226438;28;20042;-83
2024/02/02 15:08:47;;;;;;;2.97;1.20;;;14.70;51.80;;;;;;6217585;28;20096;-90
2024/02/02 15:11:49;;;;;;;5.18;1.15;;;14.60;61.20;;;;;;6216752;28;20041;-89
2024/02/02 15:14:52;;;;;;;2.05;0.90;;;14.50;66.10;;;;;;6214134;28;20077;-82
2024/02/02 15:17:54;;;;;;;2.13;0.90;;;14.30;69.60;;;;;;6214887;28;20050;-85
2024/02/02 15:21:00;;;;;;;6.53;1.10;;;14.20;77.30;;;;;;6213820;28;20143;-85
2024/02/02 15:24:02;;;;;;;10.80;1.10;;;14.10;76.80;;;;;;6214977;28;20050;-80
2024/02/02 15:27:04;;;;;;;2.08;0.90;;;14.10;81.80;;;;;;6220800;28;20042;-81
2024/02/02 15:30:06;;;;;;;8.52;1.20;;;14.00;82.50;;;;;;6206192;28;20272;-83
2024/02/02 15:33:08;;;;;;;4.40;0.93;;;14.00;85.10;;;;;;6212097;28;20042;-83
2024/02/02 15:36:10;;;;;;;2.85;0.90;;;13.90;86.90;;;;;;6200751;28;20500;-80
2024/02/02 15:39:13;;;;;;;3.60;0.80;;;13.80;89.30;;;;;;6200955;28;20085;-80
2024/02/02 15:42:31;;;;;;;3.25;0.90;;;13.60;91.20;;;;;;6209453;28;20100;-82
2024/02/02 15:45:36;;;;;;;3.17;0.85;;;13.60;92.30;;;;;;6208141;28;20413;-86
2024/02/02 15:48:38;;;;;;;5.38;0.90;;;13.50;93.20;;;;;;6211972;28;20153;-89
2024/02/02 15:51:39;;;;;;;3.67;1.00;;;13.50;93.70;;;;;;6205152;28;20141;-89
2024/02/02 15:54:42;;;;;;;2.58;0.80;;;13.30;94.10;;;;;;6218577;28;20106;-83
2024/02/02 15:57:50;;;;;;;3.25;0.80;;;13.30;95.00;;;;;;6220133;28;20054;-86